sensor_id;sensor_type;location;lat;lon;timestamp;temperature;humidity
7159;DHT22;63175;52.374;13.132;2023-06-14T00:01:07;17.20;64.10
7159;DHT22;63175;52.374;13.132;2023-06-14T00:03:35;17.20;64.40
7159;DHT22;63175;52.374;13.132;2023-06-14T00:06:01;17.20;64.60
7159;DHT22;63175;52.374;13.132;2023-06-14T00:08:28;17.10;64.80
7159;DHT22;63175;52.374;13.132;2023-06-14T00:10:57;17.10;65.00
7159;DHT22;63175;52.374;13.132;2023-06-14T00:13:24;17.10;65.40
7159;DHT22;63175;52.374;13.132;2023-06-14T00:15:50;17.00;65.70
7159;DHT22;63175;52.374;13.132;2023-06-14T00:18:20;17.00;65.90
7159;DHT22;63175;52.374;13.132;2023-06-14T00:20:49;16.90;66.60
7159;DHT22;63175;52.374;13.132;2023-06-14T00:23:17;16.90;66.10
7159;DHT22;63175;52.374;13.132;2023-06-14T00:25:44;16.90;66.30
7159;DHT22;63175;52.374;13.132;2023-06-14T00:28:12;16.90;66.40
7159;DHT22;63175;52.374;13.132;2023-06-14T00:30:39;16.90;66.50
7159;DHT22;63175;52.374;13.132;2023-06-14T00:33:06;16.80;66.70
7159;DHT22;63175;52.374;13.132;2023-06-14T00:35:33;16.80;67.20
7159;DHT22;63175;52.374;13.132;2023-06-14T00:38:00;16.80;67.40
7159;DHT22;63175;52.374;13.132;2023-06-14T00:40:27;16.70;67.70
7159;DHT22;63175;52.374;13.132;2023-06-14T00:42:54;16.70;67.80
7159;DHT22;63175;52.374;13.132;2023-06-14T00:45:22;16.70;67.80
7159;DHT22;63175;52.374;13.132;2023-06-14T00:47:49;16.70;68.00
7159;DHT22;63175;52.374;13.132;2023-06-14T00:50:20;16.70;68.40
7159;DHT22;63175;52.374;13.132;2023-06-14T00:52:48;16.70;68.70
7159;DHT22;63175;52.374;13.132;2023-06-14T00:55:16;16.70;68.90
7159;DHT22;63175;52.374;13.132;2023-06-14T00:57:43;16.60;69.20
7159;DHT22;63175;52.374;13.132;2023-06-14T01:00:12;16.60;69.60
7159;DHT22;63175;52.374;13.132;2023-06-14T01:02:41;16.60;70.00
7159;DHT22;63175;52.374;13.132;2023-06-14T01:05:09;16.60;70.30
7159;DHT22;63175;52.374;13.132;2023-06-14T01:07:44;16.50;70.50
7159;DHT22;63175;52.374;13.132;2023-06-14T01:10:26;16.50;70.60
7159;DHT22;63175;52.374;13.132;2023-06-14T01:13:02;16.50;71.00
7159;DHT22;63175;52.374;13.132;2023-06-14T01:15:31;16.50;71.40
7159;DHT22;63175;52.374;13.132;2023-06-14T01:18:00;16.40;72.00
7159;DHT22;63175;52.374;13.132;2023-06-14T01:20:30;16.40;72.30
7159;DHT22;63175;52.374;13.132;2023-06-14T01:22:59;16.30;72.70
7159;DHT22;63175;52.374;13.132;2023-06-14T01:25:26;16.40;73.20
7159;DHT22;63175;52.374;13.132;2023-06-14T01:27:56;16.30;73.60
7159;DHT22;63175;52.374;13.132;2023-06-14T01:30:24;16.30;74.10
7159;DHT22;63175;52.374;13.132;2023-06-14T01:32:53;16.30;74.70
7159;DHT22;63175;52.374;13.132;2023-06-14T01:35:21;16.20;75.20
7159;DHT22;63175;52.374;13.132;2023-06-14T01:37:49;16.20;75.70
7159;DHT22;63175;52.374;13.132;2023-06-14T01:40:19;16.20;76.10
7159;DHT22;63175;52.374;13.132;2023-06-14T01:42:48;16.20;76.70
7159;DHT22;63175;52.374;13.132;2023-06-14T01:45:17;16.20;77.10
7159;DHT22;63175;52.374;13.132;2023-06-14T01:47:45;16.20;77.60
7159;DHT22;63175;52.374;13.132;2023-06-14T01:50:13;16.20;78.40
7159;DHT22;63175;52.374;13.132;2023-06-14T01:52:40;16.20;78.90
7159;DHT22;63175;52.374;13.132;2023-06-14T01:55:07;16.20;79.70
7159;DHT22;63175;52.374;13.132;2023-06-14T01:57:36;16.20;80.10
7159;DHT22;63175;52.374;13.132;2023-06-14T02:00:03;16.10;80.90
7159;DHT22;63175;52.374;13.132;2023-06-14T02:02:33;16.10;81.90
7159;DHT22;63175;52.374;13.132;2023-06-14T02:05:01;16.10;82.50
7159;DHT22;63175;52.374;13.132;2023-06-14T02:07:28;16.10;83.30
7159;DHT22;63175;52.374;13.132;2023-06-14T02:09:54;16.10;84.10
7159;DHT22;63175;52.374;13.132;2023-06-14T02:12:21;16.10;85.00
7159;DHT22;63175;52.374;13.132;2023-06-14T02:14:49;16.10;85.60
7159;DHT22;63175;52.374;13.132;2023-06-14T02:17:16;16.10;86.40
7159;DHT22;63175;52.374;13.132;2023-06-14T02:19:43;16.00;87.00
7159;DHT22;63175;52.374;13.132;2023-06-14T02:22:10;16.00;87.70
7159;DHT22;63175;52.374;13.132;2023-06-14T02:24:37;16.00;88.50
7159;DHT22;63175;52.374;13.132;2023-06-14T02:27:04;16.00;89.00
7159;DHT22;63175;52.374;13.132;2023-06-14T02:29:32;16.00;89.70
7159;DHT22;63175;52.374;13.132;2023-06-14T02:32:00;16.00;90.30
7159;DHT22;63175;52.374;13.132;2023-06-14T02:34:27;16.00;90.60
7159;DHT22;63175;52.374;13.132;2023-06-14T02:36:54;15.90;90.80
7159;DHT22;63175;52.374;13.132;2023-06-14T02:39:21;15.90;91.10
7159;DHT22;63175;52.374;13.132;2023-06-14T02:41:48;15.90;91.50
7159;DHT22;63175;52.374;13.132;2023-06-14T02:44:17;15.90;91.80
7159;DHT22;63175;52.374;13.132;2023-06-14T02:46:44;15.90;92.00
7159;DHT22;63175;52.374;13.132;2023-06-14T02:49:13;15.80;92.30
7159;DHT22;63175;52.374;13.132;2023-06-14T02:51:40;15.80;92.70
7159;DHT22;63175;52.374;13.132;2023-06-14T02:54:06;15.80;92.90
7159;DHT22;63175;52.374;13.132;2023-06-14T02:56:33;15.70;93.20
7159;DHT22;63175;52.374;13.132;2023-06-14T02:59:01;15.70;93.60
7159;DHT22;63175;52.374;13.132;2023-06-14T03:01:28;15.70;93.80
7159;DHT22;63175;52.374;13.132;2023-06-14T03:04:00;15.70;94.10
7159;DHT22;63175;52.374;13.132;2023-06-14T03:06:28;15.70;94.20
7159;DHT22;63175;52.374;13.132;2023-06-14T03:08:55;15.70;94.30
7159;DHT22;63175;52.374;13.132;2023-06-14T03:11:24;15.70;94.70
7159;DHT22;63175;52.374;13.132;2023-06-14T03:13:51;15.70;95.10
7159;DHT22;63175;52.374;13.132;2023-06-14T03:16:18;15.60;95.10
7159;DHT22;63175;52.374;13.132;2023-06-14T03:18:48;15.60;95.50
7159;DHT22;63175;52.374;13.132;2023-06-14T03:21:15;15.60;95.70
7159;DHT22;63175;52.374;13.132;2023-06-14T03:23:43;15.60;96.10
7159;DHT22;63175;52.374;13.132;2023-06-14T03:26:10;15.60;96.40
7159;DHT22;63175;52.374;13.132;2023-06-14T03:28:38;15.50;96.60
7159;DHT22;63175;52.374;13.132;2023-06-14T03:31:05;15.50;96.80
7159;DHT22;63175;52.374;13.132;2023-06-14T03:33:34;15.50;97.20
7159;DHT22;63175;52.374;13.132;2023-06-14T03:36:01;15.50;97.20
7159;DHT22;63175;52.374;13.132;2023-06-14T03:38:28;15.50;97.40
7159;DHT22;63175;52.374;13.132;2023-06-14T03:40:57;15.50;97.60
7159;DHT22;63175;52.374;13.132;2023-06-14T03:43:23;15.50;97.70
7159;DHT22;63175;52.374;13.132;2023-06-14T03:45:50;15.50;97.90
7159;DHT22;63175;52.374;13.132;2023-06-14T03:48:17;15.60;98.10
7159;DHT22;63175;52.374;13.132;2023-06-14T03:50:44;15.60;98.10
7159;DHT22;63175;52.374;13.132;2023-06-14T03:53:11;15.60;98.20
7159;DHT22;63175;52.374;13.132;2023-06-14T03:55:38;15.60;98.60
7159;DHT22;63175;52.374;13.132;2023-06-14T03:58:06;15.70;98.40
7159;DHT22;63175;52.374;13.132;2023-06-14T04:00:33;15.60;98.70
7159;DHT22;63175;52.374;13.132;2023-06-14T04:03:01;15.60;98.90
7159;DHT22;63175;52.374;13.132;2023-06-14T04:05:28;15.70;99.20
7159;DHT22;63175;52.374;13.132;2023-06-14T04:07:55;15.70;99.20
7159;DHT22;63175;52.374;13.132;2023-06-14T04:10:22;15.70;99.20
7159;DHT22;63175;52.374;13.132;2023-06-14T04:12:49;15.80;99.30
7159;DHT22;63175;52.374;13.132;2023-06-14T04:15:18;15.80;99.20
7159;DHT22;63175;52.374;13.132;2023-06-14T04:17:45;15.80;99.30
7159;DHT22;63175;52.374;13.132;2023-06-14T04:20:12;15.90;99.40
7159;DHT22;63175;52.374;13.132;2023-06-14T04:22:39;15.90;99.40
7159;DHT22;63175;52.374;13.132;2023-06-14T04:25:07;15.90;99.50
7159;DHT22;63175;52.374;13.132;2023-06-14T04:27:35;15.90;99.50
7159;DHT22;63175;52.374;13.132;2023-06-14T04:30:03;16.00;99.60
7159;DHT22;63175;52.374;13.132;2023-06-14T04:32:31;16.00;99.50
7159;DHT22;63175;52.374;13.132;2023-06-14T04:34:59;16.00;99.50
7159;DHT22;63175;52.374;13.132;2023-06-14T04:37:27;16.00;99.50
7159;DHT22;63175;52.374;13.132;2023-06-14T04:39:54;16.10;99.60
7159;DHT22;63175;52.374;13.132;2023-06-14T04:42:22;16.10;99.50
7159;DHT22;63175;52.374;13.132;2023-06-14T04:44:51;16.20;99.50
7159;DHT22;63175;52.374;13.132;2023-06-14T04:47:21;16.20;99.40
7159;DHT22;63175;52.374;13.132;2023-06-14T04:49:51;16.20;99.30
7159;DHT22;63175;52.374;13.132;2023-06-14T04:52:19;16.30;99.30
7159;DHT22;63175;52.374;13.132;2023-06-14T04:54:47;16.40;99.20
7159;DHT22;63175;52.374;13.132;2023-06-14T04:57:14;16.40;99.10
7159;DHT22;63175;52.374;13.132;2023-06-14T04:59:42;16.40;99.10
7159;DHT22;63175;52.374;13.132;2023-06-14T05:02:09;16.50;99.00
7159;DHT22;63175;52.374;13.132;2023-06-14T05:04:37;16.50;98.80
7159;DHT22;63175;52.374;13.132;2023-06-14T05:07:06;16.50;98.60
7159;DHT22;63175;52.374;13.132;2023-06-14T05:09:34;16.60;98.50
7159;DHT22;63175;52.374;13.132;2023-06-14T05:12:01;16.60;98.50
7159;DHT22;63175;52.374;13.132;2023-06-14T05:14:29;16.70;98.30
7159;DHT22;63175;52.374;13.132;2023-06-14T05:16:55;16.70;98.20
7159;DHT22;63175;52.374;13.132;2023-06-14T05:19:22;16.80;97.90
7159;DHT22;63175;52.374;13.132;2023-06-14T05:21:49;16.90;97.70
7159;DHT22;63175;52.374;13.132;2023-06-14T05:24:17;16.90;97.40
7159;DHT22;63175;52.374;13.132;2023-06-14T05:26:45;17.00;97.00
7159;DHT22;63175;52.374;13.132;2023-06-14T05:29:12;17.00;96.80
7159;DHT22;63175;52.374;13.132;2023-06-14T05:31:39;17.10;96.80
7159;DHT22;63175;52.374;13.132;2023-06-14T05:34:05;17.10;96.70
7159;DHT22;63175;52.374;13.132;2023-06-14T05:36:32;17.10;96.40
7159;DHT22;63175;52.374;13.132;2023-06-14T05:38:59;17.20;96.30
7159;DHT22;63175;52.374;13.132;2023-06-14T05:41:29;17.20;96.10
7159;DHT22;63175;52.374;13.132;2023-06-14T05:43:57;17.20;96.10
7159;DHT22;63175;52.374;13.132;2023-06-14T05:46:25;17.20;96.10
7159;DHT22;63175;52.374;13.132;2023-06-14T05:48:52;17.30;96.00
7159;DHT22;63175;52.374;13.132;2023-06-14T05:51:19;17.50;96.00
7159;DHT22;63175;52.374;13.132;2023-06-14T05:53:46;17.60;95.70
7159;DHT22;63175;52.374;13.132;2023-06-14T05:56:13;17.80;95.40
7159;DHT22;63175;52.374;13.132;2023-06-14T05:58:41;17.90;94.80
7159;DHT22;63175;52.374;13.132;2023-06-14T06:01:08;18.10;94.30
7159;DHT22;63175;52.374;13.132;2023-06-14T06:03:36;18.20;93.80
7159;DHT22;63175;52.374;13.132;2023-06-14T06:06:02;18.30;93.50
7159;DHT22;63175;52.374;13.132;2023-06-14T06:08:29;18.40;93.10
7159;DHT22;63175;52.374;13.132;2023-06-14T06:10:56;18.50;92.90
7159;DHT22;63175;52.374;13.132;2023-06-14T06:13:23;18.60;92.30
7159;DHT22;63175;52.374;13.132;2023-06-14T06:15:51;18.60;91.80
7159;DHT22;63175;52.374;13.132;2023-06-14T06:18:18;18.70;91.60
7159;DHT22;63175;52.374;13.132;2023-06-14T06:20:45;18.80;91.20
7159;DHT22;63175;52.374;13.132;2023-06-14T06:23:12;18.90;91.00
7159;DHT22;63175;52.374;13.132;2023-06-14T06:25:39;18.90;90.40
7159;DHT22;63175;52.374;13.132;2023-06-14T06:28:07;19.10;90.30
7159;DHT22;63175;52.374;13.132;2023-06-14T06:30:34;19.20;90.00
7159;DHT22;63175;52.374;13.132;2023-06-14T06:33:03;19.20;89.20
7159;DHT22;63175;52.374;13.132;2023-06-14T06:35:29;19.00;87.90
7159;DHT22;63175;52.374;13.132;2023-06-14T06:37:58;19.40;87.60
7159;DHT22;63175;52.374;13.132;2023-06-14T06:40:25;19.40;86.30
7159;DHT22;63175;52.374;13.132;2023-06-14T06:42:52;19.50;85.60
7159;DHT22;63175;52.374;13.132;2023-06-14T06:45:20;19.50;84.90
7159;DHT22;63175;52.374;13.132;2023-06-14T06:47:46;19.40;84.30
7159;DHT22;63175;52.374;13.132;2023-06-14T06:50:15;19.40;84.10
7159;DHT22;63175;52.374;13.132;2023-06-14T06:52:42;19.40;83.80
7159;DHT22;63175;52.374;13.132;2023-06-14T06:55:10;19.30;83.70
7159;DHT22;63175;52.374;13.132;2023-06-14T06:57:38;19.30;83.10
7159;DHT22;63175;52.374;13.132;2023-06-14T07:00:06;19.20;82.90
7159;DHT22;63175;52.374;13.132;2023-06-14T07:02:35;19.20;83.00
7159;DHT22;63175;52.374;13.132;2023-06-14T07:05:02;19.20;83.30
7159;DHT22;63175;52.374;13.132;2023-06-14T07:07:31;19.20;83.40
7159;DHT22;63175;52.374;13.132;2023-06-14T07:09:58;19.20;83.50
7159;DHT22;63175;52.374;13.132;2023-06-14T07:12:25;19.20;83.60
7159;DHT22;63175;52.374;13.132;2023-06-14T07:14:52;19.20;84.30
7159;DHT22;63175;52.374;13.132;2023-06-14T07:17:19;19.30;83.80
7159;DHT22;63175;52.374;13.132;2023-06-14T07:19:46;19.30;84.00
7159;DHT22;63175;52.374;13.132;2023-06-14T07:22:13;19.30;84.70
7159;DHT22;63175;52.374;13.132;2023-06-14T07:24:41;19.40;85.30
7159;DHT22;63175;52.374;13.132;2023-06-14T07:27:08;19.20;85.10
7159;DHT22;63175;52.374;13.132;2023-06-14T07:29:35;19.60;85.20
7159;DHT22;63175;52.374;13.132;2023-06-14T07:32:02;19.80;85.40
7159;DHT22;63175;52.374;13.132;2023-06-14T07:34:29;19.80;85.10
7159;DHT22;63175;52.374;13.132;2023-06-14T07:36:56;20.00;84.90
7159;DHT22;63175;52.374;13.132;2023-06-14T07:39:23;20.10;84.60
7159;DHT22;63175;52.374;13.132;2023-06-14T07:41:51;20.30;84.10
7159;DHT22;63175;52.374;13.132;2023-06-14T07:44:18;20.50;83.10
7159;DHT22;63175;52.374;13.132;2023-06-14T07:46:45;20.70;82.70
7159;DHT22;63175;52.374;13.132;2023-06-14T07:49:14;20.90;82.20
7159;DHT22;63175;52.374;13.132;2023-06-14T07:51:41;21.10;81.50
7159;DHT22;63175;52.374;13.132;2023-06-14T07:54:09;21.30;80.60
7159;DHT22;63175;52.374;13.132;2023-06-14T07:56:36;21.50;79.80
7159;DHT22;63175;52.374;13.132;2023-06-14T07:59:04;21.70;79.40
7159;DHT22;63175;52.374;13.132;2023-06-14T08:01:33;21.80;78.50
7159;DHT22;63175;52.374;13.132;2023-06-14T08:03:59;21.90;77.60
7159;DHT22;63175;52.374;13.132;2023-06-14T08:06:27;22.00;77.00
7159;DHT22;63175;52.374;13.132;2023-06-14T08:08:53;22.10;76.20
7159;DHT22;63175;52.374;13.132;2023-06-14T08:11:20;22.10;75.90
7159;DHT22;63175;52.374;13.132;2023-06-14T08:13:49;22.20;75.40
7159;DHT22;63175;52.374;13.132;2023-06-14T08:16:17;22.10;74.90
7159;DHT22;63175;52.374;13.132;2023-06-14T08:18:44;22.00;75.00
7159;DHT22;63175;52.374;13.132;2023-06-14T08:21:11;21.90;75.20
7159;DHT22;63175;52.374;13.132;2023-06-14T08:23:40;21.90;75.60
7159;DHT22;63175;52.374;13.132;2023-06-14T08:26:08;21.90;75.60
7159;DHT22;63175;52.374;13.132;2023-06-14T08:28:35;21.90;75.50
7159;DHT22;63175;52.374;13.132;2023-06-14T08:31:02;21.90;75.40
7159;DHT22;63175;52.374;13.132;2023-06-14T08:33:31;21.90;75.40
7159;DHT22;63175;52.374;13.132;2023-06-14T08:35:59;21.90;75.00
7159;DHT22;63175;52.374;13.132;2023-06-14T08:38:26;21.90;74.70
7159;DHT22;63175;52.374;13.132;2023-06-14T08:40:57;21.90;74.70
7159;DHT22;63175;52.374;13.132;2023-06-14T08:43:24;22.00;74.70
7159;DHT22;63175;52.374;13.132;2023-06-14T08:45:53;22.00;74.50
7159;DHT22;63175;52.374;13.132;2023-06-14T08:48:21;22.10;74.60
7159;DHT22;63175;52.374;13.132;2023-06-14T08:50:54;22.10;74.30
7159;DHT22;63175;52.374;13.132;2023-06-14T08:53:28;22.10;73.60
7159;DHT22;63175;52.374;13.132;2023-06-14T08:55:57;22.10;73.00
7159;DHT22;63175;52.374;13.132;2023-06-14T08:58:27;22.00;72.90
7159;DHT22;63175;52.374;13.132;2023-06-14T09:00:55;22.10;73.00
7159;DHT22;63175;52.374;13.132;2023-06-14T09:03:23;22.10;72.50
7159;DHT22;63175;52.374;13.132;2023-06-14T09:05:57;22.20;72.10
7159;DHT22;63175;52.374;13.132;2023-06-14T09:08:26;22.30;71.80
7159;DHT22;63175;52.374;13.132;2023-06-14T09:10:56;22.50;71.20
7159;DHT22;63175;52.374;13.132;2023-06-14T09:13:23;22.70;70.80
7159;DHT22;63175;52.374;13.132;2023-06-14T09:15:50;23.10;70.40
7159;DHT22;63175;52.374;13.132;2023-06-14T09:18:17;23.60;69.50
7159;DHT22;63175;52.374;13.132;2023-06-14T09:20:45;24.00;68.20
7159;DHT22;63175;52.374;13.132;2023-06-14T09:40:06;25.30;59.50
7159;DHT22;63175;52.374;13.132;2023-06-14T09:42:34;25.30;59.20
7159;DHT22;63175;52.374;13.132;2023-06-14T09:45:03;25.00;59.20
7159;DHT22;63175;52.374;13.132;2023-06-14T09:47:31;24.80;59.50
7159;DHT22;63175;52.374;13.132;2023-06-14T09:49:58;24.70;59.40
7159;DHT22;63175;52.374;13.132;2023-06-14T09:52:26;24.70;59.50
7159;DHT22;63175;52.374;13.132;2023-06-14T09:54:55;24.70;59.50
7159;DHT22;63175;52.374;13.132;2023-06-14T09:57:24;24.70;59.40
7159;DHT22;63175;52.374;13.132;2023-06-14T09:59:53;24.70;59.10
7159;DHT22;63175;52.374;13.132;2023-06-14T10:02:26;24.70;58.80
7159;DHT22;63175;52.374;13.132;2023-06-14T10:04:58;24.70;58.50
7159;DHT22;63175;52.374;13.132;2023-06-14T10:07:26;24.90;58.30
7159;DHT22;63175;52.374;13.132;2023-06-14T10:09:57;24.90;58.00
7159;DHT22;63175;52.374;13.132;2023-06-14T10:12:26;25.00;57.80
7159;DHT22;63175;52.374;13.132;2023-06-14T10:14:53;25.00;58.30
7159;DHT22;63175;52.374;13.132;2023-06-14T10:17:27;25.00;58.00
7159;DHT22;63175;52.374;13.132;2023-06-14T10:20:11;25.10;57.90
7159;DHT22;63175;52.374;13.132;2023-06-14T10:22:45;25.20;57.50
7159;DHT22;63175;52.374;13.132;2023-06-14T10:25:13;25.30;57.30
7159;DHT22;63175;52.374;13.132;2023-06-14T10:27:56;25.40;57.10
7159;DHT22;63175;52.374;13.132;2023-06-14T10:30:28;25.40;56.70
7159;DHT22;63175;52.374;13.132;2023-06-14T10:33:05;25.30;56.90
7159;DHT22;63175;52.374;13.132;2023-06-14T10:35:33;25.30;57.00
7159;DHT22;63175;52.374;13.132;2023-06-14T10:38:07;25.30;56.90
7159;DHT22;63175;52.374;13.132;2023-06-14T10:40:34;25.50;56.70
7159;DHT22;63175;52.374;13.132;2023-06-14T10:43:21;25.60;56.60
7159;DHT22;63175;52.374;13.132;2023-06-14T10:46:14;25.70;55.80
7159;DHT22;63175;52.374;13.132;2023-06-14T10:48:42;25.70;55.60
7159;DHT22;63175;52.374;13.132;2023-06-14T10:51:16;25.80;55.10
7159;DHT22;63175;52.374;13.132;2023-06-14T10:53:46;25.80;55.00
7159;DHT22;63175;52.374;13.132;2023-06-14T10:56:24;25.80;54.60
7159;DHT22;63175;52.374;13.132;2023-06-14T10:58:53;25.90;54.10
7159;DHT22;63175;52.374;13.132;2023-06-14T11:01:31;25.90;53.60
7159;DHT22;63175;52.374;13.132;2023-06-14T11:04:07;26.00;54.00
7159;DHT22;63175;52.374;13.132;2023-06-14T11:06:46;26.10;53.30
7159;DHT22;63175;52.374;13.132;2023-06-14T11:12:21;26.20;53.20
7159;DHT22;63175;52.374;13.132;2023-06-14T11:14:50;26.20;53.10
7159;DHT22;63175;52.374;13.132;2023-06-14T11:17:17;26.50;52.90
7159;DHT22;63175;52.374;13.132;2023-06-14T11:19:44;26.60;52.50
7159;DHT22;63175;52.374;13.132;2023-06-14T11:22:12;26.60;52.00
7159;DHT22;63175;52.374;13.132;2023-06-14T11:24:40;26.50;51.50
7159;DHT22;63175;52.374;13.132;2023-06-14T11:27:07;26.40;51.30
7159;DHT22;63175;52.374;13.132;2023-06-14T11:29:34;26.30;51.50
7159;DHT22;63175;52.374;13.132;2023-06-14T11:32:02;26.30;51.60
7159;DHT22;63175;52.374;13.132;2023-06-14T11:34:32;26.20;51.70
7159;DHT22;63175;52.374;13.132;2023-06-14T11:36:59;26.30;51.80
7159;DHT22;63175;52.374;13.132;2023-06-14T11:39:26;26.50;51.50
7159;DHT22;63175;52.374;13.132;2023-06-14T11:41:53;26.70;51.20
7159;DHT22;63175;52.374;13.132;2023-06-14T11:44:21;26.90;50.70
7159;DHT22;63175;52.374;13.132;2023-06-14T11:46:48;27.00;50.40
7159;DHT22;63175;52.374;13.132;2023-06-14T11:49:17;27.10;49.90
7159;DHT22;63175;52.374;13.132;2023-06-14T11:51:44;27.10;49.80
7159;DHT22;63175;52.374;13.132;2023-06-14T11:54:12;27.20;50.10
7159;DHT22;63175;52.374;13.132;2023-06-14T11:56:39;27.40;50.20
7159;DHT22;63175;52.374;13.132;2023-06-14T11:59:06;27.50;49.80
7159;DHT22;63175;52.374;13.132;2023-06-14T12:01:36;27.60;49.80
7159;DHT22;63175;52.374;13.132;2023-06-14T12:04:04;27.70;49.40
7159;DHT22;63175;52.374;13.132;2023-06-14T12:06:32;27.90;48.50
7159;DHT22;63175;52.374;13.132;2023-06-14T12:09:03;28.10;47.90
7159;DHT22;63175;52.374;13.132;2023-06-14T12:11:33;28.30;47.30
7159;DHT22;63175;52.374;13.132;2023-06-14T12:14:00;28.40;47.10
7159;DHT22;63175;52.374;13.132;2023-06-14T12:16:31;28.50;46.80
7159;DHT22;63175;52.374;13.132;2023-06-14T12:19:00;28.60;46.10
7159;DHT22;63175;52.374;13.132;2023-06-14T12:21:27;28.50;45.40
7159;DHT22;63175;52.374;13.132;2023-06-14T12:23:56;28.40;45.40
7159;DHT22;63175;52.374;13.132;2023-06-14T12:26:24;28.40;45.30
7159;DHT22;63175;52.374;13.132;2023-06-14T12:28:53;28.40;45.50
7159;DHT22;63175;52.374;13.132;2023-06-14T12:31:20;28.40;45.30
7159;DHT22;63175;52.374;13.132;2023-06-14T12:33:47;28.30;45.40
7159;DHT22;63175;52.374;13.132;2023-06-14T12:36:15;28.20;45.50
7159;DHT22;63175;52.374;13.132;2023-06-14T12:38:42;28.20;45.60
7159;DHT22;63175;52.374;13.132;2023-06-14T12:41:12;28.40;45.70
7159;DHT22;63175;52.374;13.132;2023-06-14T12:43:40;28.50;45.70
7159;DHT22;63175;52.374;13.132;2023-06-14T12:46:07;28.60;45.20
7159;DHT22;63175;52.374;13.132;2023-06-14T12:48:34;28.70;45.20
7159;DHT22;63175;52.374;13.132;2023-06-14T12:51:01;28.70;44.90
7159;DHT22;63175;52.374;13.132;2023-06-14T12:53:28;28.80;44.90
7159;DHT22;63175;52.374;13.132;2023-06-14T12:55:54;28.90;44.50
7159;DHT22;63175;52.374;13.132;2023-06-14T12:58:23;29.10;44.10
7159;DHT22;63175;52.374;13.132;2023-06-14T13:00:50;29.20;43.50
7159;DHT22;63175;52.374;13.132;2023-06-14T13:03:17;29.10;43.10
7159;DHT22;63175;52.374;13.132;2023-06-14T13:05:44;29.20;43.00
7159;DHT22;63175;52.374;13.132;2023-06-14T13:08:11;29.30;43.00
7159;DHT22;63175;52.374;13.132;2023-06-14T13:10:38;29.40;42.70
7159;DHT22;63175;52.374;13.132;2023-06-14T13:13:05;29.50;42.30
7159;DHT22;63175;52.374;13.132;2023-06-14T13:15:34;29.60;42.70
7159;DHT22;63175;52.374;13.132;2023-06-14T13:18:01;29.70;42.00
7159;DHT22;63175;52.374;13.132;2023-06-14T13:20:28;29.70;41.40
7159;DHT22;63175;52.374;13.132;2023-06-14T13:22:55;29.70;41.00
7159;DHT22;63175;52.374;13.132;2023-06-14T13:25:22;29.80;41.00
7159;DHT22;63175;52.374;13.132;2023-06-14T13:27:49;29.90;40.50
7159;DHT22;63175;52.374;13.132;2023-06-14T13:30:16;30.00;40.30
7159;DHT22;63175;52.374;13.132;2023-06-14T13:32:44;30.00;40.30
7159;DHT22;63175;52.374;13.132;2023-06-14T13:35:11;30.00;39.90
7159;DHT22;63175;52.374;13.132;2023-06-14T13:37:38;30.00;39.60
7159;DHT22;63175;52.374;13.132;2023-06-14T13:40:06;30.10;40.00
7159;DHT22;63175;52.374;13.132;2023-06-14T13:42:33;30.00;39.00
7159;DHT22;63175;52.374;13.132;2023-06-14T13:45:01;30.00;39.00
7159;DHT22;63175;52.374;13.132;2023-06-14T13:47:28;30.10;39.20
7159;DHT22;63175;52.374;13.132;2023-06-14T13:49:56;30.20;39.20
7159;DHT22;63175;52.374;13.132;2023-06-14T13:52:23;30.30;38.80
7159;DHT22;63175;52.374;13.132;2023-06-14T13:54:50;30.50;38.90
7159;DHT22;63175;52.374;13.132;2023-06-14T13:57:17;30.40;38.20
7159;DHT22;63175;52.374;13.132;2023-06-14T13:59:44;30.30;37.80
7159;DHT22;63175;52.374;13.132;2023-06-14T14:02:12;30.20;38.00
7159;DHT22;63175;52.374;13.132;2023-06-14T14:04:39;30.30;38.30
7159;DHT22;63175;52.374;13.132;2023-06-14T14:07:08;30.60;38.20
7159;DHT22;63175;52.374;13.132;2023-06-14T14:09:35;30.80;37.40
7159;DHT22;63175;52.374;13.132;2023-06-14T14:12:03;31.10;37.20
7159;DHT22;63175;52.374;13.132;2023-06-14T14:14:30;31.30;36.60
7159;DHT22;63175;52.374;13.132;2023-06-14T14:16:58;31.60;36.10
7159;DHT22;63175;52.374;13.132;2023-06-14T14:19:25;31.80;35.70
7159;DHT22;63175;52.374;13.132;2023-06-14T14:21:52;32.10;35.50
7159;DHT22;63175;52.374;13.132;2023-06-14T14:24:20;32.20;35.20
7159;DHT22;63175;52.374;13.132;2023-06-14T14:26:47;32.00;35.30
7159;DHT22;63175;52.374;13.132;2023-06-14T14:29:15;31.80;35.70
7159;DHT22;63175;52.374;13.132;2023-06-14T14:31:42;31.30;36.00
7159;DHT22;63175;52.374;13.132;2023-06-14T14:34:09;30.90;36.60
7159;DHT22;63175;52.374;13.132;2023-06-14T14:36:36;30.60;37.20
7159;DHT22;63175;52.374;13.132;2023-06-14T14:39:06;30.40;37.40
7159;DHT22;63175;52.374;13.132;2023-06-14T14:41:35;30.10;37.60
7159;DHT22;63175;52.374;13.132;2023-06-14T14:44:03;29.90;37.70
7159;DHT22;63175;52.374;13.132;2023-06-14T14:46:30;29.50;37.80
7159;DHT22;63175;52.374;13.132;2023-06-14T14:48:58;29.20;37.90
7159;DHT22;63175;52.374;13.132;2023-06-14T14:51:25;28.70;38.20
7159;DHT22;63175;52.374;13.132;2023-06-14T14:53:52;28.60;39.00
7159;DHT22;63175;52.374;13.132;2023-06-14T14:56:19;28.30;40.30
7159;DHT22;63175;52.374;13.132;2023-06-14T14:58:47;28.10;40.30
7159;DHT22;63175;52.374;13.132;2023-06-14T15:01:15;28.00;40.50
7159;DHT22;63175;52.374;13.132;2023-06-14T15:03:42;28.00;40.50
7159;DHT22;63175;52.374;13.132;2023-06-14T15:06:08;28.10;40.60
7159;DHT22;63175;52.374;13.132;2023-06-14T15:08:35;28.10;40.50
7159;DHT22;63175;52.374;13.132;2023-06-14T15:11:02;28.10;40.60
7159;DHT22;63175;52.374;13.132;2023-06-14T15:13:29;28.00;40.90
7159;DHT22;63175;52.374;13.132;2023-06-14T15:15:57;27.80;40.90
7159;DHT22;63175;52.374;13.132;2023-06-14T15:18:24;27.60;41.10
7159;DHT22;63175;52.374;13.132;2023-06-14T15:20:51;27.30;41.20
7159;DHT22;63175;52.374;13.132;2023-06-14T15:23:17;27.10;41.30
7159;DHT22;63175;52.374;13.132;2023-06-14T15:25:45;27.00;41.50
7159;DHT22;63175;52.374;13.132;2023-06-14T15:28:13;26.70;41.80
7159;DHT22;63175;52.374;13.132;2023-06-14T15:30:40;26.60;42.20
7159;DHT22;63175;52.374;13.132;2023-06-14T15:33:08;26.50;42.50
7159;DHT22;63175;52.374;13.132;2023-06-14T15:35:35;26.30;42.80
7159;DHT22;63175;52.374;13.132;2023-06-14T15:38:02;26.10;43.00
7159;DHT22;63175;52.374;13.132;2023-06-14T15:40:29;26.00;43.90
7159;DHT22;63175;52.374;13.132;2023-06-14T15:42:55;25.80;43.50
7159;DHT22;63175;52.374;13.132;2023-06-14T15:45:22;25.70;43.70
7159;DHT22;63175;52.374;13.132;2023-06-14T15:47:49;25.50;43.70
7159;DHT22;63175;52.374;13.132;2023-06-14T15:50:17;25.30;43.70
7159;DHT22;63175;52.374;13.132;2023-06-14T15:52:44;25.20;43.90
7159;DHT22;63175;52.374;13.132;2023-06-14T15:55:12;25.00;44.20